Time;durP1;ratioP1;P1;durP2;ratioP2;P2;SDS_P1;SDS_P2;PMS_P1;PMS_P2;Temp;Humidity;BMP_temperature;BMP_pressure;BME280_temperature;BME280_humidity;BME280_pressure;Samples;Min_cycle;Max_cycle;Signal;HPM_P1;HPM_P2
2023/08/24 00:01:30;;;;;;;6.28;4.47;;;;;;;21.41;58.40;95893.25;5006808;28;20230;-81
2023/08/24 00:03:56;;;;;;;5.00;4.38;;;;;;;21.37;58.61;95892.84;4979170;28;20282;-82
2023/08/24 00:06:21;;;;;;;7.20;4.30;;;;;;;21.37;58.71;95882.28;4983641;28;20208;-81
2023/08/24 00:08:47;;;;;;;5.85;4.57;;;;;;;21.32;58.48;95873.38;4997663;28;20203;-82
2023/08/24 00:11:14;;;;;;;7.05;4.15;;;;;;;21.32;58.79;95868.09;4999404;28;20272;-82
2023/08/24 00:13:41;;;;;;;4.85;4.43;;;;;;;21.25;58.79;95854.84;4988020;28;20201;-82
2023/08/24 00:16:07;;;;;;;5.38;4.38;;;;;;;21.24;58.81;95855.88;4981146;28;20181;-82
2023/08/24 00:18:32;;;;;;;7.90;4.88;;;;;;;21.26;58.76;95859.13;4974683;28;20760;-82
2023/08/24 00:20:58;;;;;;;4.72;4.22;;;;;;;21.31;58.73;95866.47;4973936;28;20650;-81
2023/08/24 00:23:23;;;;;;;4.65;4.15;;;;;;;21.31;58.16;95862.00;4992283;28;20522;-82
2023/08/24 00:25:48;;;;;;;5.97;4.40;;;;;;;21.33;58.12;95867.06;4999699;28;20234;-81
2023/08/24 00:28:14;;;;;;;8.00;4.68;;;;;;;21.32;58.11;95857.53;4998241;28;20219;-81
2023/08/24 00:30:39;;;;;;;5.82;4.22;;;;;;;21.40;58.03;95855.47;4999469;28;20191;-82
2023/08/24 00:33:04;;;;;;;4.13;3.70;;;;;;;21.37;58.29;95855.06;5001964;28;20188;-82
2023/08/24 00:35:30;;;;;;;6.78;4.65;;;;;;;21.41;58.17;95854.44;4988224;28;20180;-81
2023/08/24 00:37:56;;;;;;;7.07;4.82;;;;;;;21.41;58.06;95843.06;4988669;28;20210;-82
2023/08/24 00:40:21;;;;;;;5.93;4.53;;;;;;;21.45;57.74;95839.78;4992848;28;20192;-82
2023/08/24 00:42:46;;;;;;;5.35;4.40;;;;;;;21.54;57.76;95832.44;4980218;28;20211;-82
2023/08/24 00:45:12;;;;;;;7.55;4.70;;;;;;;21.59;57.27;95837.94;5000541;28;20212;-81
2023/08/24 00:47:45;;;;;;;5.90;4.97;;;;;;;21.63;57.00;95827.72;4981634;28;20234;-81
2023/08/24 00:50:11;;;;;;;5.32;4.35;;;;;;;21.71;57.03;95823.03;4978908;28;20274;-82
2023/08/24 00:52:39;;;;;;;5.50;4.18;;;;;;;21.70;57.05;95817.94;4960514;28;20196;-82
2023/08/24 00:55:05;;;;;;;4.93;4.32;;;;;;;21.67;56.99;95823.66;5000983;28;20207;-81
2023/08/24 00:57:31;;;;;;;5.68;4.68;;;;;;;21.64;57.08;95816.94;5006411;28;20218;-82
2023/08/24 00:59:59;;;;;;;5.55;5.03;;;;;;;21.61;57.40;95819.22;4973599;28;20306;-82
2023/08/24 01:02:24;;;;;;;5.43;4.53;;;;;;;21.54;57.61;95810.50;4975683;28;20190;-82
2023/08/24 01:04:49;;;;;;;5.03;4.47;;;;;;;21.54;57.65;95813.94;4981805;28;20302;-81
2023/08/24 01:07:15;;;;;;;6.90;5.07;;;;;;;21.51;57.74;95814.38;4980993;28;20316;-82
2023/08/24 01:09:42;;;;;;;7.35;4.70;;;;;;;21.51;57.85;95808.28;4985032;28;20191;-81
2023/08/24 01:12:37;;;;;;;8.38;5.07;;;;;;;21.49;58.12;95808.50;4990892;28;20220;-82
2023/08/24 01:15:04;;;;;;;6.30;4.35;;;;;;;21.50;58.14;95812.75;4986892;28;20187;-81
2023/08/24 01:17:31;;;;;;;9.13;4.95;;;;;;;21.45;58.35;95815.19;4988460;28;20203;-82
2023/08/24 01:19:58;;;;;;;5.07;4.57;;;;;;;21.39;58.82;95806.28;4999615;28;20196;-82
2023/08/24 01:22:26;;;;;;;6.15;5.10;;;;;;;21.41;58.51;95804.25;4985629;28;20585;-82
2023/08/24 01:25:07;;;;;;;5.10;4.60;;;;;;;21.37;58.95;95810.16;4982826;28;20231;-82
2023/08/24 01:27:34;;;;;;;7.35;5.00;;;;;;;21.37;58.87;95804.84;4984233;28;20208;-81
2023/08/24 01:30:00;;;;;;;6.72;4.72;;;;;;;21.26;59.00;95803.66;4988404;28;20572;-81
2023/08/24 01:32:26;;;;;;;7.22;5.25;;;;;;;21.29;59.21;95805.94;5006532;28;20278;-81
2023/08/24 01:34:51;;;;;;;8.63;4.70;;;;;;;21.27;59.18;95809.78;5004137;28;20275;-81
2023/08/24 01:37:17;;;;;;;5.78;4.88;;;;;;;21.14;59.49;95808.78;4991674;28;20236;-81
2023/08/24 01:39:46;;;;;;;6.55;4.88;;;;;;;21.27;59.18;95807.94;4980920;28;20266;-82
2023/08/24 01:42:19;;;;;;;7.88;4.75;;;;;;;21.29;58.90;95810.38;5004083;28;20282;-81
2023/08/24 01:44:47;;;;;;;5.95;4.85;;;;;;;21.31;59.06;95822.38;4967914;28;20259;-81
2023/08/24 01:47:13;;;;;;;8.30;4.75;;;;;;;21.27;59.25;95817.69;4984123;28;20295;-81
2023/08/24 01:49:40;;;;;;;6.22;5.03;;;;;;;21.21;59.26;95821.97;4981534;28;20259;-81
2023/08/24 01:52:05;;;;;;;5.40;4.90;;;;;;;21.19;59.47;95819.50;4962190;28;20220;-82
2023/08/24 01:54:31;;;;;;;5.05;4.55;;;;;;;21.16;59.56;95822.56;4991754;28;20192;-81
2023/08/24 01:56:56;;;;;;;6.55;5.45;;;;;;;21.14;60.05;95824.63;4995090;28;20191;-81
2023/08/24 01:59:22;;;;;;;4.82;4.43;;;;;;;21.07;60.02;95826.44;4996795;28;20207;-81
2023/08/24 02:01:47;;;;;;;6.10;5.40;;;;;;;21.01;60.50;95827.25;4981928;28;20238;-82
2023/08/24 02:04:13;;;;;;;6.18;4.82;;;;;;;20.96;60.49;95826.28;4984067;28;20242;-81
2023/08/24 02:06:39;;;;;;;6.43;4.90;;;;;;;20.91;60.98;95821.59;4989649;28;20187;-81
2023/08/24 02:09:04;;;;;;;5.93;5.03;;;;;;;20.87;61.30;95825.69;4988739;28;20209;-81
2023/08/24 02:11:29;;;;;;;5.82;5.20;;;;;;;20.84;60.96;95821.59;5003416;28;20187;-81
2023/08/24 02:13:54;;;;;;;6.65;5.00;;;;;;;20.84;61.15;95812.88;5008836;28;20564;-81
2023/08/24 02:16:20;;;;;;;6.95;5.32;;;;;;;20.82;61.04;95810.44;5004676;28;20697;-81
2023/08/24 02:18:45;;;;;;;8.73;5.15;;;;;;;20.81;61.32;95805.38;4977720;28;20805;-81
2023/08/24 02:21:12;;;;;;;6.82;5.00;;;;;;;20.83;61.24;95814.69;4996493;28;20200;-81
2023/08/24 02:23:37;;;;;;;7.97;5.43;;;;;;;20.86;61.05;95802.94;4982544;28;20183;-81
2023/08/24 02:26:04;;;;;;;6.55;5.38;;;;;;;20.89;61.31;95802.53;4985142;28;20781;-81
2023/08/24 02:28:29;;;;;;;7.20;5.15;;;;;;;20.88;61.01;95807.00;4981400;28;20235;-81
2023/08/24 02:30:54;;;;;;;8.45;4.95;;;;;;;20.87;60.75;95813.28;4965065;28;20578;-81
2023/08/24 02:33:19;;;;;;;6.85;5.45;;;;;;;20.89;60.99;95805.16;4975251;28;20598;-81
2023/08/24 02:35:47;;;;;;;6.57;4.85;;;;;;;20.88;61.18;95800.91;4992107;28;20700;-81
2023/08/24 02:38:12;;;;;;;6.10;5.40;;;;;;;20.85;61.33;95799.50;4980912;28;20728;-80
2023/08/24 02:40:38;;;;;;;6.43;5.05;;;;;;;20.86;61.20;95792.38;4971251;28;20197;-81
2023/08/24 02:43:03;;;;;;;7.85;5.13;;;;;;;20.84;61.16;95794.41;4985054;28;20216;-81
2023/08/24 02:45:28;;;;;;;6.30;4.93;;;;;;;20.84;61.30;95797.84;4981661;28;20214;-81
2023/08/24 02:47:54;;;;;;;6.80;5.50;;;;;;;20.80;61.28;95790.56;4980269;28;20212;-81
2023/08/24 02:50:19;;;;;;;8.93;5.53;;;;;;;20.86;61.58;95784.47;4993628;28;20231;-81
2023/08/24 02:52:45;;;;;;;5.88;5.25;;;;;;;20.87;61.40;95784.25;4978517;28;20184;-81
2023/08/24 02:55:11;;;;;;;9.65;5.38;;;;;;;20.84;60.97;95775.91;4976328;28;20216;-82
2023/08/24 02:57:36;;;;;;;6.10;4.72;;;;;;;20.83;60.95;95774.31;4996059;28;20200;-81
2023/08/24 03:00:03;;;;;;;5.90;5.20;;;;;;;20.80;61.42;95780.00;4983661;28;20652;-81
2023/08/24 03:02:29;;;;;;;8.90;5.55;;;;;;;20.78;61.56;95772.28;5001618;28;20199;-81
2023/08/24 03:04:55;;;;;;;5.75;5.15;;;;;;;20.75;61.36;95777.16;4982423;28;20208;-81
2023/08/24 03:07:20;;;;;;;6.68;5.35;;;;;;;20.73;61.42;95774.72;4978581;28;20204;-81
2023/08/24 03:09:46;;;;;;;10.07;5.43;;;;;;;20.70;61.86;95776.97;4980563;28;20200;-82
2023/08/24 03:12:12;;;;;;;5.65;5.13;;;;;;;20.67;61.67;95767.63;5007611;28;20214;-81
2023/08/24 03:14:37;;;;;;;9.30;5.07;;;;;;;20.64;62.10;95760.13;4966790;28;20180;-81
2023/08/24 03:17:04;;;;;;;6.72;5.65;;;;;;;20.62;62.28;95765.59;4992894;28;20199;-81
2023/08/24 03:19:29;;;;;;;5.18;4.68;;;;;;;20.65;62.17;95759.09;4996620;28;20189;-81
2023/08/24 03:21:54;;;;;;;8.35;5.10;;;;;;;20.65;61.66;95749.34;4982601;28;20565;-81
2023/08/24 03:24:20;;;;;;;6.63;5.40;;;;;;;20.72;61.79;95744.06;5002802;28;20207;-81
2023/08/24 03:26:45;;;;;;;6.03;5.40;;;;;;;20.75;61.38;95742.84;5003036;28;20188;-82
2023/08/24 03:29:10;;;;;;;6.07;5.10;;;;;;;20.78;61.06;95742.44;5006686;28;20247;-82
2023/08/24 03:31:36;;;;;;;6.15;4.85;;;;;;;20.85;61.02;95730.88;4983150;28;20192;-81
2023/08/24 03:34:03;;;;;;;7.03;4.80;;;;;;;20.90;60.86;95738.16;5000259;28;20192;-82
2023/08/24 03:36:28;;;;;;;8.65;5.03;;;;;;;20.94;60.94;95736.72;4988629;28;20407;-82
2023/08/24 03:38:54;;;;;;;7.32;4.80;;;;;;;20.98;60.42;95735.28;4984822;28;20228;-82
2023/08/24 03:41:19;;;;;;;9.10;5.05;;;;;;;21.05;60.48;95725.53;4999822;28;20184;-81
2023/08/24 03:43:44;;;;;;;6.22;5.10;;;;;;;21.10;60.07;95728.34;5001965;28;20560;-82
2023/08/24 03:46:10;;;;;;;8.23;5.15;;;;;;;21.16;60.12;95722.22;5002094;28;20212;-81
2023/08/24 03:48:35;;;;;;;5.55;4.63;;;;;;;21.24;59.96;95713.25;5005930;28;20204;-82
2023/08/24 03:51:00;;;;;;;9.57;4.70;;;;;;;21.30;59.70;95706.38;5008207;28;20195;-82
2023/08/24 03:53:26;;;;;;;9.35;5.65;;;;;;;21.28;59.97;95713.66;4990661;28;20187;-81
2023/08/24 03:55:52;;;;;;;8.30;5.32;;;;;;;21.26;59.93;95713.03;4976857;28;20238;-81
2023/08/24 03:58:17;;;;;;;10.57;5.15;;;;;;;21.29;59.33;95715.28;4980140;28;20209;-82
2023/08/24 04:00:44;;;;;;;7.40;5.57;;;;;;;21.27;59.21;95706.78;4995168;28;20526;-80
2023/08/24 04:03:09;;;;;;;6.30;5.20;;;;;;;21.20;59.68;95698.84;4983944;28;20183;-81
2023/08/24 04:05:34;;;;;;;12.00;5.60;;;;;;;21.19;59.68;95695.38;4999600;28;20216;-81
2023/08/24 04:08:00;;;;;;;5.78;5.20;;;;;;;21.14;59.95;95700.50;5005445;28;20199;-82
2023/08/24 04:10:26;;;;;;;8.73;6.07;;;;;;;21.11;59.96;95700.91;4991277;28;20188;-81
2023/08/24 04:12:52;;;;;;;6.47;5.43;;;;;;;21.08;60.00;95696.06;5005575;28;20186;-81
2023/08/24 04:15:17;;;;;;;9.75;5.93;;;;;;;21.04;59.84;95705.41;4983505;28;20180;-81
2023/08/24 04:17:42;;;;;;;7.18;5.78;;;;;;;20.98;60.43;95700.97;4979503;28;20212;-82
2023/08/24 04:20:08;;;;;;;10.82;6.22;;;;;;;20.96;60.30;95702.22;4997447;28;20180;-81
2023/08/24 04:22:34;;;;;;;6.95;5.90;;;;;;;20.94;60.47;95707.69;4996069;28;20193;-81
2023/08/24 04:25:00;;;;;;;6.60;5.30;;;;;;;20.87;60.76;95699.78;4995326;28;20267;-81
2023/08/24 04:27:25;;;;;;;7.50;6.03;;;;;;;20.80;61.14;95701.63;4989618;28;20219;-82
2023/08/24 04:29:50;;;;;;;7.50;5.82;;;;;;;20.78;61.35;95697.59;4988586;28;20195;-82
2023/08/24 04:32:15;;;;;;;9.13;6.32;;;;;;;20.76;61.62;95697.81;4977078;28;20187;-81
2023/08/24 04:34:41;;;;;;;8.77;6.03;;;;;;;20.73;61.73;95695.56;4993305;28;20720;-82
2023/08/24 04:37:07;;;;;;;7.85;5.22;;;;;;;20.74;61.79;95699.00;4997604;28;20180;-81
2023/08/24 04:39:32;;;;;;;6.47;5.40;;;;;;;20.70;61.80;95697.81;4997400;28;20195;-81
2023/08/24 04:41:57;;;;;;;8.40;5.90;;;;;;;20.72;61.95;95698.41;4981176;28;20274;-81
2023/08/24 04:44:24;;;;;;;9.63;6.25;;;;;;;20.74;62.05;95697.19;4992449;28;20197;-81
2023/08/24 04:46:49;;;;;;;11.27;5.97;;;;;;;20.70;62.54;95695.97;4961231;28;20224;-82
2023/08/24 04:49:15;;;;;;;7.10;6.30;;;;;;;20.75;62.50;95697.97;4988567;28;20234;-81
2023/08/24 04:51:40;;;;;;;12.20;6.72;;;;;;;20.81;62.54;95691.88;4990305;28;20701;-81
2023/08/24 04:54:05;;;;;;;7.40;5.28;;;;;;;20.81;62.45;95686.59;4976689;28;20243;-81
2023/08/24 04:56:31;;;;;;;9.95;5.80;;;;;;;20.97;61.93;95694.06;4980740;28;20176;-81
2023/08/24 04:58:57;;;;;;;7.85;5.90;;;;;;;21.02;62.15;95686.31;4997309;28;20239;-81
2023/08/24 05:01:25;;;;;;;6.88;5.15;;;;;;;21.09;61.60;95681.81;4979997;28;20195;-80
2023/08/24 05:03:53;;;;;;;7.70;5.22;;;;;;;21.11;61.67;95685.06;4997336;28;20737;-86
2023/08/24 05:06:19;;;;;;;7.60;5.20;;;;;;;21.21;61.11;95680.16;4980968;28;20653;-82
2023/08/24 05:08:45;;;;;;;6.93;5.32;;;;;;;21.36;60.74;95681.72;4982887;28;20207;-82
2023/08/24 05:11:16;;;;;;;8.43;5.53;;;;;;;21.48;60.36;95674.78;5004074;28;20275;-83
2023/08/24 05:13:41;;;;;;;7.45;5.43;;;;;;;21.44;60.33;95671.72;4980143;28;20176;-84
2023/08/24 05:16:07;;;;;;;6.72;5.43;;;;;;;21.52;60.31;95667.22;4975051;28;20206;-83
2023/08/24 05:18:34;;;;;;;5.63;4.93;;;;;;;21.59;59.91;95663.53;4974206;28;20224;-82
2023/08/24 05:20:59;;;;;;;8.30;5.82;;;;;;;21.70;59.46;95670.75;4996134;28;20596;-80
2023/08/24 05:23:24;;;;;;;7.88;5.47;;;;;;;21.74;59.28;95660.59;4992367;28;20188;-80
2023/08/24 05:25:50;;;;;;;7.68;5.00;;;;;;;21.85;58.94;95662.53;4990784;28;20223;-81
2023/08/24 05:28:15;;;;;;;9.52;5.93;;;;;;;21.95;58.48;95662.03;5002586;28;20207;-80
2023/08/24 05:30:40;;;;;;;8.57;5.50;;;;;;;21.95;58.51;95664.69;4988006;28;20682;-81
2023/08/24 05:33:05;;;;;;;5.60;5.00;;;;;;;22.15;58.09;95660.06;4993808;28;20241;-82
2023/08/24 05:35:31;;;;;;;7.93;5.53;;;;;;;22.19;58.25;95660.47;4997176;28;20215;-81
2023/08/24 05:37:57;;;;;;;8.88;5.50;;;;;;;22.31;57.83;95667.47;4998294;28;20242;-82
2023/08/24 05:40:24;;;;;;;6.40;5.38;;;;;;;22.43;57.60;95664.91;5001400;28;20283;-80
2023/08/24 05:42:49;;;;;;;10.23;5.20;;;;;;;22.76;57.11;95669.84;4984131;28;20193;-80
2023/08/24 05:45:15;;;;;;;7.13;4.88;;;;;;;22.74;56.80;95666.63;4993884;28;20267;-79
2023/08/24 05:47:40;;;;;;;6.93;5.13;;;;;;;22.70;57.30;95667.25;4980629;28;20712;-83
2023/08/24 05:50:06;;;;;;;8.93;5.43;;;;;;;22.53;57.41;95662.56;4999919;28;20279;-83
2023/08/24 05:52:31;;;;;;;8.00;5.38;;;;;;;22.61;56.58;95661.44;4987502;28;20624;-83
2023/08/24 05:54:57;;;;;;;9.60;5.20;;;;;;;22.58;57.04;95668.00;4999759;28;20230;-83
2023/08/24 05:57:22;;;;;;;6.55;5.10;;;;;;;22.61;57.08;95666.75;4996148;28;20231;-83
2023/08/24 05:59:50;;;;;;;7.82;4.97;;;;;;;22.52;57.34;95671.50;4994526;28;20234;-85
2023/08/24 06:02:16;;;;;;;6.25;4.68;;;;;;;22.44;57.30;95668.34;4978728;28;20185;-83
2023/08/24 06:04:41;;;;;;;5.88;5.10;;;;;;;22.40;57.73;95678.56;4980702;28;20704;-83
2023/08/24 06:07:06;;;;;;;9.18;5.32;;;;;;;22.28;58.47;95683.78;4978397;28;20499;-83
2023/08/24 06:09:32;;;;;;;6.78;5.43;;;;;;;22.11;58.73;95684.53;5000983;28;20308;-84
2023/08/24 06:11:57;;;;;;;6.10;5.50;;;;;;;21.99;58.92;95687.00;4964825;28;20251;-83
2023/08/24 06:14:22;;;;;;;6.03;5.35;;;;;;;21.96;58.14;95690.91;4985996;28;20200;-83
2023/08/24 06:16:48;;;;;;;8.77;5.22;;;;;;;22.03;58.41;95696.16;5002144;28;20190;-84
2023/08/24 06:19:14;;;;;;;6.57;5.07;;;;;;;22.03;58.92;95704.91;4973567;28;20250;-83
2023/08/24 06:21:39;;;;;;;7.25;5.13;;;;;;;22.05;58.67;95716.06;4969940;28;20776;-84
2023/08/24 06:24:04;;;;;;;5.25;4.70;;;;;;;22.18;57.92;95736.34;4967426;28;20215;-85
2023/08/24 06:26:30;;;;;;;6.25;4.85;;;;;;;22.15;58.54;95747.34;5004009;28;20230;-83
2023/08/24 06:28:55;;;;;;;7.43;5.00;;;;;;;22.12;59.30;95762.84;5002135;28;20269;-84
2023/08/24 06:31:21;;;;;;;8.18;5.53;;;;;;;22.29;59.53;95769.22;4987070;28;20188;-84
2023/08/24 06:33:46;;;;;;;6.68;5.18;;;;;;;22.38;59.73;95785.66;4970741;28;20195;-84
2023/08/24 06:36:12;;;;;;;6.47;5.40;;;;;;;22.41;59.40;95791.31;4988919;28;20211;-84
2023/08/24 06:38:37;;;;;;;8.45;5.32;;;;;;;22.36;60.04;95779.78;5005598;28;20360;-84
2023/08/24 06:41:03;;;;;;;6.63;5.47;;;;;;;22.29;60.07;95748.88;4965951;28;20184;-82
2023/08/24 06:43:28;;;;;;;6.03;5.05;;;;;;;22.63;60.37;95722.94;4981148;28;20668;-84
2023/08/24 06:45:57;;;;;;;8.00;5.50;;;;;;;22.85;59.67;95710.91;5004893;28;20286;-84
2023/08/24 06:48:23;;;;;;;8.60;5.53;;;;;;;22.94;59.92;95723.88;5001618;28;20206;-81
2023/08/24 06:50:48;;;;;;;9.00;5.78;;;;;;;22.85;60.73;95726.81;4986547;28;20184;-81
2023/08/24 06:53:16;;;;;;;6.93;5.38;;;;;;;23.03;60.98;95722.53;4970186;28;20190;-76
2023/08/24 06:55:42;;;;;;;6.18;5.05;;;;;;;23.37;59.21;95714.00;4984952;28;20180;-76
2023/08/24 06:58:07;;;;;;;5.93;4.40;;;;;;;23.60;57.75;95701.91;5002929;28;20277;-76
2023/08/24 07:00:33;;;;;;;5.65;4.97;;;;;;;23.58;56.80;95698.63;4981913;28;20625;-76
2023/08/24 07:02:59;;;;;;;5.47;4.68;;;;;;;23.45;56.01;95705.72;4973804;28;20195;-77
2023/08/24 07:05:24;;;;;;;6.25;5.53;;;;;;;23.42;56.38;95706.19;4978158;28;20208;-76
2023/08/24 07:07:50;;;;;;;6.15;4.78;;;;;;;23.61;55.63;95704.34;4972859;28;20200;-76
2023/08/24 07:10:15;;;;;;;8.15;5.00;;;;;;;23.81;55.06;95708.53;4999820;28;20773;-77
2023/08/24 07:12:41;;;;;;;9.00;4.72;;;;;;;24.16;53.38;95705.97;4997832;28;20204;-76
2023/08/24 07:15:07;;;;;;;6.97;4.53;;;;;;;24.97;51.15;95720.31;4984112;28;20188;-77
2023/08/24 07:17:32;;;;;;;5.32;4.50;;;;;;;25.04;50.91;95719.19;5003259;28;20219;-77
2023/08/24 07:19:58;;;;;;;5.45;4.90;;;;;;;25.31;50.27;95721.31;4976553;28;20191;-77
2023/08/24 07:22:23;;;;;;;9.02;4.60;;;;;;;25.67;48.66;95712.16;4983213;28;20210;-77
2023/08/24 07:24:52;;;;;;;4.85;4.20;;;;;;;26.09;47.94;95702.03;4982054;28;20278;-77
2023/08/24 07:27:17;;;;;;;7.85;4.25;;;;;;;26.31;47.93;95703.97;4984526;28;20176;-76
2023/08/24 07:29:43;;;;;;;5.63;4.38;;;;;;;26.25;48.05;95711.06;4967654;28;20603;-77
2023/08/24 07:32:08;;;;;;;6.03;4.45;;;;;;;26.32;47.45;95706.38;4965046;28;20665;-76
2023/08/24 07:34:34;;;;;;;5.38;3.97;;;;;;;26.57;46.22;95707.84;4999956;28;20650;-76
2023/08/24 07:36:59;;;;;;;5.53;4.25;;;;;;;26.64;46.53;95703.97;4992756;28;20188;-76
2023/08/24 07:39:24;;;;;;;5.35;4.18;;;;;;;26.81;45.26;95703.94;4979518;28;20188;-76
2023/08/24 07:41:50;;;;;;;5.88;3.97;;;;;;;26.89;45.23;95705.38;4974013;28;20188;-76
2023/08/24 07:44:15;;;;;;;6.90;4.18;;;;;;;26.90;45.03;95709.66;5002919;28;20188;-76
2023/08/24 07:46:40;;;;;;;6.07;4.85;;;;;;;26.07;50.09;95717.44;4980170;28;20204;-76
2023/08/24 07:49:06;;;;;;;5.85;5.22;;;;;;;25.89;51.40;95721.13;4983398;28;20607;-76
2023/08/24 07:51:33;;;;;;;5.93;5.07;;;;;;;25.92;51.60;95725.94;4983898;28;20282;-77
2023/08/24 07:53:59;;;;;;;6.65;5.40;;;;;;;25.69;53.11;95721.50;4995944;28;20263;-77
2023/08/24 07:56:24;;;;;;;6.45;4.82;;;;;;;26.13;52.28;95720.97;4976430;28;20722;-77
2023/08/24 07:58:49;;;;;;;8.13;5.78;;;;;;;26.09;51.36;95719.84;5002702;28;20203;-77
2023/08/24 08:01:15;;;;;;;7.55;5.43;;;;;;;25.89;50.29;95722.97;4980010;28;20343;-76
2023/08/24 08:03:40;;;;;;;6.50;4.78;;;;;;;25.77;49.81;95728.34;4975241;28;20243;-77
2023/08/24 08:06:05;;;;;;;6.07;4.57;;;;;;;25.93;50.93;95721.44;4984488;28;20222;-77
2023/08/24 08:08:31;;;;;;;5.93;4.82;;;;;;;26.15;49.60;95719.72;4984823;28;20752;-77
2023/08/24 08:11:00;;;;;;;7.65;4.90;;;;;;;26.11;49.74;95713.22;4999364;28;20752;-77
2023/08/24 08:13:27;;;;;;;7.05;4.85;;;;;;;26.62;48.51;95718.59;4982263;28;20875;-77
2023/08/24 08:15:52;;;;;;;5.65;4.72;;;;;;;26.44;48.18;95717.00;4973005;28;20680;-76
2023/08/24 08:18:18;;;;;;;5.35;4.70;;;;;;;26.61;48.65;95724.97;5000767;28;20211;-77
2023/08/24 08:20:43;;;;;;;5.88;4.55;;;;;;;26.07;49.15;95729.94;4977074;28;20192;-76
2023/08/24 08:23:08;;;;;;;8.57;4.78;;;;;;;26.37;48.95;95733.09;4980122;28;20195;-77
2023/08/24 08:25:34;;;;;;;5.40;4.72;;;;;;;25.98;49.60;95724.19;4995667;28;20236;-77
2023/08/24 08:27:59;;;;;;;5.55;4.90;;;;;;;26.11;49.46;95723.06;4981036;28;20216;-77
2023/08/24 08:30:24;;;;;;;6.38;4.72;;;;;;;26.44;49.18;95722.31;4985426;28;20187;-77
2023/08/24 08:32:52;;;;;;;5.13;4.63;;;;;;;26.26;49.39;95716.16;4985914;28;20245;-77
2023/08/24 08:35:17;;;;;;;6.57;5.07;;;;;;;26.41;48.50;95718.25;4983002;28;20190;-77
2023/08/24 08:37:43;;;;;;;4.80;4.40;;;;;;;26.47;47.73;95725.28;4975193;28;20589;-77
2023/08/24 08:40:11;;;;;;;7.15;4.65;;;;;;;26.49;48.00;95725.03;4980769;28;20274;-77
2023/08/24 08:42:37;;;;;;;4.70;4.30;;;;;;;26.52;48.51;95729.91;4975619;28;20214;-77
2023/08/24 08:45:04;;;;;;;5.53;4.82;;;;;;;26.54;48.74;95736.59;4994164;28;20239;-77
2023/08/24 08:47:30;;;;;;;5.47;4.95;;;;;;;26.97;47.49;95734.28;4982366;28;20693;-77
2023/08/24 08:49:56;;;;;;;7.70;4.72;;;;;;;26.74;47.84;95728.09;4983688;28;20220;-80
2023/08/24 08:52:21;;;;;;;5.57;4.95;;;;;;;27.17;47.29;95729.22;4982150;28;20199;-77
2023/08/24 08:54:46;;;;;;;6.05;4.68;;;;;;;27.22;47.53;95725.84;4981814;28;20571;-77
2023/08/24 08:57:13;;;;;;;8.15;4.93;;;;;;;27.41;47.57;95721.00;4991962;28;20331;-77
2023/08/24 08:59:38;;;;;;;8.40;5.00;;;;;;;27.57;47.19;95725.47;4988461;28;20188;-77
2023/08/24 09:02:04;;;;;;;8.07;4.45;;;;;;;27.58;46.96;95708.38;4980685;28;20191;-78
2023/08/24 09:04:33;;;;;;;6.15;4.82;;;;;;;27.53;47.54;95701.13;4965003;28;20191;-78
2023/08/24 09:07:03;;;;;;;7.50;5.28;;;;;;;27.67;47.53;95688.25;4980677;28;20191;-78
2023/08/24 09:09:29;;;;;;;6.25;4.53;;;;;;;27.89;47.22;95686.31;4969730;28;20268;-78
2023/08/24 09:11:54;;;;;;;5.65;5.10;;;;;;;27.93;48.24;95684.75;4968500;28;20314;-78
2023/08/24 09:14:19;;;;;;;6.32;4.38;;;;;;;28.23;46.23;95680.72;4999007;28;20364;-78
2023/08/24 09:16:44;;;;;;;8.50;4.55;;;;;;;28.15;45.78;95665.19;4981384;28;20180;-78
2023/08/24 09:19:13;;;;;;;5.55;5.05;;;;;;;28.53;44.64;95674.81;4977922;28;20207;-79
2023/08/24 09:21:39;;;;;;;6.05;4.72;;;;;;;28.32;46.08;95667.75;4990365;28;20254;-79
2023/08/24 09:24:05;;;;;;;7.03;4.90;;;;;;;28.48;45.60;95672.13;4989119;28;20558;-78
2023/08/24 09:26:35;;;;;;;6.10;5.05;;;;;;;28.49;45.13;95671.88;4981028;28;20220;-78
2023/08/24 09:29:05;;;;;;;6.97;4.68;;;;;;;28.66;45.40;95668.22;4986249;28;20227;-78
2023/08/24 09:31:37;;;;;;;5.47;4.97;;;;;;;28.58;45.06;95666.84;5001943;28;20310;-79
2023/08/24 09:34:03;;;;;;;5.68;4.95;;;;;;;28.45;45.77;95662.78;4992953;28;20562;-78
2023/08/24 09:36:31;;;;;;;5.38;4.88;;;;;;;28.78;44.72;95658.13;4987431;28;20206;-78
2023/08/24 09:38:58;;;;;;;8.10;5.05;;;;;;;28.93;45.05;95652.09;4990286;28;20218;-79
2023/08/24 09:41:24;;;;;;;5.03;4.45;;;;;;;28.85;45.17;95640.00;4997306;28;20685;-79
2023/08/24 09:43:49;;;;;;;8.25;4.55;;;;;;;29.07;44.48;95639.88;4989225;28;20198;-85
2023/08/24 09:46:18;;;;;;;7.90;5.22;;;;;;;28.98;45.10;95623.53;4974800;28;20581;-82
2023/08/24 09:48:43;;;;;;;8.75;5.28;;;;;;;29.04;45.14;95625.16;4972487;28;20243;-83
2023/08/24 09:51:09;;;;;;;8.55;5.47;;;;;;;28.95;44.95;95618.69;5005066;28;20657;-83
2023/08/24 09:53:40;;;;;;;6.68;5.15;;;;;;;29.01;43.95;95616.84;4991247;28;20693;-83
2023/08/24 09:56:07;;;;;;;9.18;5.30;;;;;;;29.12;44.61;95612.34;4978064;28;20849;-81
2023/08/24 09:58:34;;;;;;;7.72;5.32;;;;;;;29.32;44.81;95605.16;4995436;28;20216;-81
2023/08/24 10:01:01;;;;;;;9.45;5.47;;;;;;;29.16;45.29;95597.41;4993342;28;20184;-82
2023/08/24 10:03:27;;;;;;;9.25;5.43;;;;;;;29.53;45.64;95595.34;4989465;28;20207;-81
2023/08/24 10:06:03;;;;;;;6.30;5.28;;;;;;;29.41;44.99;95592.06;4989466;28;20239;-81
2023/08/24 10:08:41;;;;;;;9.13;5.32;;;;;;;29.40;45.27;95587.00;4985005;28;20207;-81
2023/08/24 10:11:08;;;;;;;9.18;5.80;;;;;;;29.41;45.09;95586.72;4983107;28;20240;-81
2023/08/24 10:13:42;;;;;;;7.45;5.45;;;;;;;29.44;44.48;95582.75;4983893;28;20191;-81
2023/08/24 10:16:08;;;;;;;8.00;6.03;;;;;;;29.52;44.97;95582.25;4966764;28;20186;-80
2023/08/24 10:18:33;;;;;;;8.25;5.15;;;;;;;29.64;45.25;95577.44;4966813;28;20215;-81
2023/08/24 10:21:00;;;;;;;9.48;5.68;;;;;;;29.60;45.01;95582.53;4991517;28;20188;-81
2023/08/24 10:23:27;;;;;;;9.63;5.70;;;;;;;29.75;45.13;95583.59;4982531;28;20220;-81
2023/08/24 10:25:53;;;;;;;6.18;5.57;;;;;;;29.84;45.21;95576.63;4969705;28;20578;-81
2023/08/24 10:28:20;;;;;;;9.80;5.72;;;;;;;29.89;44.86;95564.06;4985184;28;20208;-81
2023/08/24 10:30:45;;;;;;;10.70;5.78;;;;;;;30.12;45.28;95567.25;4965167;28;20765;-80
2023/08/24 10:33:12;;;;;;;8.90;5.75;;;;;;;30.17;43.95;95568.06;4994455;28;20192;-77
2023/08/24 10:35:39;;;;;;;8.50;6.20;;;;;;;29.78;44.64;95562.47;4979194;28;20185;-77
2023/08/24 10:38:05;;;;;;;10.02;6.10;;;;;;;30.10;44.07;95556.81;5000172;28;20573;-77
2023/08/24 10:40:35;;;;;;;8.52;5.47;;;;;;;30.40;43.85;95547.13;4988986;28;20761;-77
2023/08/24 10:43:05;;;;;;;10.25;5.95;;;;;;;30.67;44.05;95544.13;4984553;28;20250;-77
2023/08/24 10:45:59;;;;;;;10.02;6.07;;;;;;;30.52;43.99;95544.94;4984304;28;20218;-77
2023/08/24 10:48:28;;;;;;;8.95;6.05;;;;;;;30.42;44.08;95537.75;4983702;28;20254;-77
2023/08/24 10:51:16;;;;;;;7.78;5.95;;;;;;;30.70;42.95;95536.31;4985100;28;20180;-77
2023/08/24 10:53:45;;;;;;;12.45;6.25;;;;;;;30.61;42.71;95532.56;4993384;28;20184;-77
2023/08/24 10:56:14;;;;;;;9.80;6.18;;;;;;;30.79;42.73;95543.78;4968500;28;20594;-78
2023/08/24 10:58:40;;;;;;;7.00;6.32;;;;;;;30.52;43.86;95528.06;4978865;28;20208;-77
2023/08/24 11:01:06;;;;;;;11.20;6.25;;;;;;;30.65;43.85;95528.28;4986152;28;20185;-77
2023/08/24 11:03:35;;;;;;;11.27;6.40;;;;;;;30.78;43.30;95526.09;5001059;28;20302;-77
2023/08/24 11:06:00;;;;;;;13.18;6.53;;;;;;;30.97;43.51;95519.84;5005033;28;20677;-78
2023/08/24 11:08:45;;;;;;;7.82;6.43;;;;;;;30.85;42.71;95522.06;4987934;28;20251;-77
2023/08/24 11:11:20;;;;;;;8.80;6.25;;;;;;;31.06;42.60;95514.69;5000203;28;20191;-77
2023/08/24 11:14:19;;;;;;;8.07;7.10;;;;;;;31.09;43.77;95519.47;4988873;28;20242;-82
2023/08/24 11:16:48;;;;;;;7.70;6.53;;;;;;;31.13;42.66;95517.06;5005348;28;20258;-79
2023/08/24 11:19:15;;;;;;;9.65;6.43;;;;;;;31.04;43.59;95511.50;5004715;28;20362;-79
2023/08/24 11:21:41;;;;;;;7.75;6.78;;;;;;;30.95;43.66;95511.28;4989292;28;20548;-79
2023/08/24 11:24:09;;;;;;;10.23;6.57;;;;;;;31.25;42.69;95510.28;4984693;28;20183;-78
2023/08/24 11:26:34;;;;;;;8.68;6.63;;;;;;;31.33;41.95;95500.06;4979691;28;20217;-78
2023/08/24 11:28:59;;;;;;;10.68;7.50;;;;;;;31.29;42.56;95494.47;4984134;28;20220;-78
2023/08/24 11:31:25;;;;;;;8.85;6.75;;;;;;;31.22;42.70;95497.44;5003157;28;20184;-79